Terminal Aerodrome Forecast
Issued by NWS

Home | Current Version | Previous Version | Text Only | Print | Product List | Glossary On
Versions: 1 2 3 4 5 6 7 8 9 10 11 12 13 14 15 16 17 18 19
000
FTUS43 KGRB 281100
TAFATW
TAF
KATW 281130Z 2812/2912 17007KT P6SM SCT025 BKN120
      TEMPO 2812/2816 5SM BR BKN025
     FM281600 17009KT 6SM BR SCT015 BKN025
     FM282100 15010KT P6SM SCT025 BKN060 WS018/19035KT
     FM290400 16011KT P6SM BKN020 OVC050 WS018/19030KT PROB30
      2904/2910 2SM -FZRASNPL BR BKN012
     FM291000 30008KT 5SM -SN BR BKN012=

USA.gov is the U.S. government's official web portal to all federal, state and local government web resources and services.